sensor_id;sensor_type;location;lat;lon;timestamp;temperature;humidity
40556;DHT22;26250;45.422;11.100;2023-04-15T11:12:07;17.10;67.50
40556;DHT22;26250;45.422;11.100;2023-04-15T11:14:39;17.10;67.70
40556;DHT22;26250;45.422;11.100;2023-04-15T11:17:07;17.20;67.20
40556;DHT22;26250;45.422;11.100;2023-04-15T11:19:35;17.10;66.10
40556;DHT22;26250;45.422;11.100;2023-04-15T11:22:07;17.20;67.50
40556;DHT22;26250;45.422;11.100;2023-04-15T11:24:35;17.30;67.00
40556;DHT22;26250;45.422;11.100;2023-04-15T11:27:02;17.50;66.00
40556;DHT22;26250;45.422;11.100;2023-04-15T11:29:30;17.50;65.00
40556;DHT22;26250;45.422;11.100;2023-04-15T11:32:05;17.40;64.80
40556;DHT22;26250;45.422;11.100;2023-04-15T11:34:33;17.40;65.20
40556;DHT22;26250;45.422;11.100;2023-04-15T11:37:05;17.50;66.40
40556;DHT22;26250;45.422;11.100;2023-04-15T11:39:32;17.50;65.80
40556;DHT22;26250;45.422;11.100;2023-04-15T11:41:59;17.50;65.90
40556;DHT22;26250;45.422;11.100;2023-04-15T11:44:26;17.50;65.70
40556;DHT22;26250;45.422;11.100;2023-04-15T11:46:54;17.50;64.80
40556;DHT22;26250;45.422;11.100;2023-04-15T11:49:26;17.50;64.50
40556;DHT22;26250;45.422;11.100;2023-04-15T11:51:53;17.50;64.80
40556;DHT22;26250;45.422;11.100;2023-04-15T11:54:20;17.50;64.80
40556;DHT22;26250;45.422;11.100;2023-04-15T11:56:51;17.50;64.80
40556;DHT22;26250;45.422;11.100;2023-04-15T11:59:18;17.50;65.10
40556;DHT22;26250;45.422;11.100;2023-04-15T12:01:45;17.50;64.70
40556;DHT22;26250;45.422;11.100;2023-04-15T12:04:15;17.60;64.20
40556;DHT22;26250;45.422;11.100;2023-04-15T12:06:48;17.70;63.80
40556;DHT22;26250;45.422;11.100;2023-04-15T12:09:15;17.70;64.00
40556;DHT22;26250;45.422;11.100;2023-04-15T12:11:49;17.70;63.20
40556;DHT22;26250;45.422;11.100;2023-04-15T12:17:01;17.80;63.80
40556;DHT22;26250;45.422;11.100;2023-04-15T12:19:36;17.80;62.90
40556;DHT22;26250;45.422;11.100;2023-04-15T12:22:10;17.70;61.70
40556;DHT22;26250;45.422;11.100;2023-04-15T12:24:38;17.70;61.60
40556;DHT22;26250;45.422;11.100;2023-04-15T12:27:07;17.80;62.00
40556;DHT22;26250;45.422;11.100;2023-04-15T12:29:38;17.80;61.30
40556;DHT22;26250;45.422;11.100;2023-04-15T12:32:13;17.80;61.20
40556;DHT22;26250;45.422;11.100;2023-04-15T12:34:43;17.80;62.30
40556;DHT22;26250;45.422;11.100;2023-04-15T12:37:11;17.80;62.90
40556;DHT22;26250;45.422;11.100;2023-04-15T12:39:42;17.70;64.40
40556;DHT22;26250;45.422;11.100;2023-04-15T12:42:13;17.70;63.90
40556;DHT22;26250;45.422;11.100;2023-04-15T12:44:40;17.70;63.00
40556;DHT22;26250;45.422;11.100;2023-04-15T12:47:08;17.70;61.70
40556;DHT22;26250;45.422;11.100;2023-04-15T12:49:35;17.70;61.00
40556;DHT22;26250;45.422;11.100;2023-04-15T12:52:03;17.80;63.00
40556;DHT22;26250;45.422;11.100;2023-04-15T12:54:31;17.80;63.90
40556;DHT22;26250;45.422;11.100;2023-04-15T12:56:58;17.80;63.70
40556;DHT22;26250;45.422;11.100;2023-04-15T12:59:25;17.70;63.50
40556;DHT22;26250;45.422;11.100;2023-04-15T13:01:53;17.70;64.10
40556;DHT22;26250;45.422;11.100;2023-04-15T13:04:20;17.60;63.70
40556;DHT22;26250;45.422;11.100;2023-04-15T13:06:48;17.60;64.00
40556;DHT22;26250;45.422;11.100;2023-04-15T13:09:15;17.70;64.00
40556;DHT22;26250;45.422;11.100;2023-04-15T13:11:42;17.70;63.70
40556;DHT22;26250;45.422;11.100;2023-04-15T13:14:09;17.80;64.40
40556;DHT22;26250;45.422;11.100;2023-04-15T13:16:39;18.00;63.20
40556;DHT22;26250;45.422;11.100;2023-04-15T13:19:06;18.00;62.70
40556;DHT22;26250;45.422;11.100;2023-04-15T13:21:33;17.90;61.30
40556;DHT22;26250;45.422;11.100;2023-04-15T13:24:02;17.90;62.00
40556;DHT22;26250;45.422;11.100;2023-04-15T13:26:30;17.80;62.40
40556;DHT22;26250;45.422;11.100;2023-04-15T13:29:00;17.80;61.60
40556;DHT22;26250;45.422;11.100;2023-04-15T13:31:27;17.70;61.60
40556;DHT22;26250;45.422;11.100;2023-04-15T13:33:55;17.80;62.90
40556;DHT22;26250;45.422;11.100;2023-04-15T13:36:22;17.80;61.60
40556;DHT22;26250;45.422;11.100;2023-04-15T13:38:49;17.80;61.60
40556;DHT22;26250;45.422;11.100;2023-04-15T13:41:17;17.80;62.20
40556;DHT22;26250;45.422;11.100;2023-04-15T13:43:44;17.90;61.20
40556;DHT22;26250;45.422;11.100;2023-04-15T13:46:11;17.90;59.40
40556;DHT22;26250;45.422;11.100;2023-04-15T13:48:38;18.00;59.40
40556;DHT22;26250;45.422;11.100;2023-04-15T13:51:05;18.00;58.90
40556;DHT22;26250;45.422;11.100;2023-04-15T13:53:32;18.20;59.60
40556;DHT22;26250;45.422;11.100;2023-04-15T13:56:07;18.20;60.00
40556;DHT22;26250;45.422;11.100;2023-04-15T13:58:35;18.10;59.50
40556;DHT22;26250;45.422;11.100;2023-04-15T14:01:05;18.20;58.30
40556;DHT22;26250;45.422;11.100;2023-04-15T14:03:36;18.20;58.20
40556;DHT22;26250;45.422;11.100;2023-04-15T14:06:04;18.30;59.20
40556;DHT22;26250;45.422;11.100;2023-04-15T14:08:32;18.20;58.10
40556;DHT22;26250;45.422;11.100;2023-04-15T14:11:02;18.20;59.80
40556;DHT22;26250;45.422;11.100;2023-04-15T14:13:29;18.20;60.10
40556;DHT22;26250;45.422;11.100;2023-04-15T14:15:56;18.30;60.60
40556;DHT22;26250;45.422;11.100;2023-04-15T14:18:23;18.30;61.50
40556;DHT22;26250;45.422;11.100;2023-04-15T14:20:50;18.30;61.90
40556;DHT22;26250;45.422;11.100;2023-04-15T14:23:17;18.30;61.00
40556;DHT22;26250;45.422;11.100;2023-04-15T14:25:44;18.30;60.50
40556;DHT22;26250;45.422;11.100;2023-04-15T14:28:14;18.30;61.20
40556;DHT22;26250;45.422;11.100;2023-04-15T14:30:41;18.40;58.20
40556;DHT22;26250;45.422;11.100;2023-04-15T14:33:11;18.50;58.40
40556;DHT22;26250;45.422;11.100;2023-04-15T14:35:38;18.50;59.10
40556;DHT22;26250;45.422;11.100;2023-04-15T14:38:04;18.60;59.00
40556;DHT22;26250;45.422;11.100;2023-04-15T14:40:33;18.60;60.80
40556;DHT22;26250;45.422;11.100;2023-04-15T14:43:00;18.60;58.30
40556;DHT22;26250;45.422;11.100;2023-04-15T14:45:27;18.50;58.10
40556;DHT22;26250;45.422;11.100;2023-04-15T14:47:55;18.40;59.20
40556;DHT22;26250;45.422;11.100;2023-04-15T14:50:22;18.40;59.20
40556;DHT22;26250;45.422;11.100;2023-04-15T14:52:49;18.30;61.10
40556;DHT22;26250;45.422;11.100;2023-04-15T14:55:16;18.40;61.40
40556;DHT22;26250;45.422;11.100;2023-04-15T14:57:43;18.30;62.40
40556;DHT22;26250;45.422;11.100;2023-04-15T15:00:10;18.30;61.80
40556;DHT22;26250;45.422;11.100;2023-04-15T15:02:41;18.30;61.00
40556;DHT22;26250;45.422;11.100;2023-04-15T15:05:10;18.20;61.40
40556;DHT22;26250;45.422;11.100;2023-04-15T15:07:38;18.20;60.80
40556;DHT22;26250;45.422;11.100;2023-04-15T15:10:07;18.10;59.50
40556;DHT22;26250;45.422;11.100;2023-04-15T15:12:34;18.00;60.00
40556;DHT22;26250;45.422;11.100;2023-04-15T15:15:03;17.90;60.20
40556;DHT22;26250;45.422;11.100;2023-04-15T15:17:41;17.80;60.60
40556;DHT22;26250;45.422;11.100;2023-04-15T15:20:09;17.80;59.50
40556;DHT22;26250;45.422;11.100;2023-04-15T15:22:36;17.80;61.00
40556;DHT22;26250;45.422;11.100;2023-04-15T15:25:03;17.70;61.60
40556;DHT22;26250;45.422;11.100;2023-04-15T15:27:30;17.80;62.40
40556;DHT22;26250;45.422;11.100;2023-04-15T15:29:57;17.90;60.90
40556;DHT22;26250;45.422;11.100;2023-04-15T15:32:24;17.80;59.10
40556;DHT22;26250;45.422;11.100;2023-04-15T15:34:51;17.70;58.80
40556;DHT22;26250;45.422;11.100;2023-04-15T15:37:18;17.70;60.60
40556;DHT22;26250;45.422;11.100;2023-04-15T15:39:45;17.70;58.10
40556;DHT22;26250;45.422;11.100;2023-04-15T15:42:12;17.70;59.30
40556;DHT22;26250;45.422;11.100;2023-04-15T15:44:39;17.80;60.10
40556;DHT22;26250;45.422;11.100;2023-04-15T15:47:07;17.90;60.50
40556;DHT22;26250;45.422;11.100;2023-04-15T15:49:33;17.90;60.00
40556;DHT22;26250;45.422;11.100;2023-04-15T15:52:00;18.00;60.90
40556;DHT22;26250;45.422;11.100;2023-04-15T15:54:27;17.90;61.40
40556;DHT22;26250;45.422;11.100;2023-04-15T15:56:54;17.80;61.90
40556;DHT22;26250;45.422;11.100;2023-04-15T15:59:23;17.70;62.30
40556;DHT22;26250;45.422;11.100;2023-04-15T16:01:51;17.70;62.50
40556;DHT22;26250;45.422;11.100;2023-04-15T16:04:18;17.70;62.20
40556;DHT22;26250;45.422;11.100;2023-04-15T16:06:45;17.60;63.20
40556;DHT22;26250;45.422;11.100;2023-04-15T16:09:12;17.60;64.00
40556;DHT22;26250;45.422;11.100;2023-04-15T16:11:39;17.50;62.50
40556;DHT22;26250;45.422;11.100;2023-04-15T16:14:06;17.40;63.40
40556;DHT22;26250;45.422;11.100;2023-04-15T16:16:33;17.40;59.30
40556;DHT22;26250;45.422;11.100;2023-04-15T16:19:00;17.30;60.90
40556;DHT22;26250;45.422;11.100;2023-04-15T16:21:27;17.30;61.60
40556;DHT22;26250;45.422;11.100;2023-04-15T16:23:55;17.40;61.80
40556;DHT22;26250;45.422;11.100;2023-04-15T16:26:22;17.40;61.20
40556;DHT22;26250;45.422;11.100;2023-04-15T16:28:49;17.40;62.60
40556;DHT22;26250;45.422;11.100;2023-04-15T16:31:16;17.40;62.00
40556;DHT22;26250;45.422;11.100;2023-04-15T16:33:43;17.50;63.10
40556;DHT22;26250;45.422;11.100;2023-04-15T16:36:09;17.30;63.30
40556;DHT22;26250;45.422;11.100;2023-04-15T16:38:36;17.30;63.80
40556;DHT22;26250;45.422;11.100;2023-04-15T16:41:03;17.30;63.60
40556;DHT22;26250;45.422;11.100;2023-04-15T16:43:30;17.20;62.50
40556;DHT22;26250;45.422;11.100;2023-04-15T16:45:57;17.20;61.80
40556;DHT22;26250;45.422;11.100;2023-04-15T16:48:25;17.20;61.50
40556;DHT22;26250;45.422;11.100;2023-04-15T16:50:51;17.10;62.00
40556;DHT22;26250;45.422;11.100;2023-04-15T16:53:20;17.10;61.70
40556;DHT22;26250;45.422;11.100;2023-04-15T16:55:47;17.00;62.30
40556;DHT22;26250;45.422;11.100;2023-04-15T16:58:14;17.00;63.00
40556;DHT22;26250;45.422;11.100;2023-04-15T17:00:42;16.90;62.90
40556;DHT22;26250;45.422;11.100;2023-04-15T17:03:09;17.00;64.80
40556;DHT22;26250;45.422;11.100;2023-04-15T17:05:37;16.90;66.40
40556;DHT22;26250;45.422;11.100;2023-04-15T17:08:05;16.80;68.00
40556;DHT22;26250;45.422;11.100;2023-04-15T17:10:32;16.80;68.60
40556;DHT22;26250;45.422;11.100;2023-04-15T17:12:59;16.70;68.70
40556;DHT22;26250;45.422;11.100;2023-04-15T17:15:28;16.60;68.70
40556;DHT22;26250;45.422;11.100;2023-04-15T17:17:55;16.50;69.40
40556;DHT22;26250;45.422;11.100;2023-04-15T17:20:22;16.60;69.60
40556;DHT22;26250;45.422;11.100;2023-04-15T17:22:48;16.50;69.20
40556;DHT22;26250;45.422;11.100;2023-04-15T17:25:15;16.50;68.90
40556;DHT22;26250;45.422;11.100;2023-04-15T17:27:42;16.40;69.60
40556;DHT22;26250;45.422;11.100;2023-04-15T17:30:09;16.40;69.20
40556;DHT22;26250;45.422;11.100;2023-04-15T17:32:37;16.40;69.20
40556;DHT22;26250;45.422;11.100;2023-04-15T17:35:06;16.20;68.70
40556;DHT22;26250;45.422;11.100;2023-04-15T17:37:33;16.20;68.90
40556;DHT22;26250;45.422;11.100;2023-04-15T17:40:00;16.20;69.50
40556;DHT22;26250;45.422;11.100;2023-04-15T17:42:27;16.20;69.40
40556;DHT22;26250;45.422;11.100;2023-04-15T17:44:54;16.20;69.50
40556;DHT22;26250;45.422;11.100;2023-04-15T17:47:21;16.10;69.70
40556;DHT22;26250;45.422;11.100;2023-04-15T17:49:48;16.10;70.20
40556;DHT22;26250;45.422;11.100;2023-04-15T17:52:15;16.00;70.30
40556;DHT22;26250;45.422;11.100;2023-04-15T17:54:42;15.90;70.60
40556;DHT22;26250;45.422;11.100;2023-04-15T17:57:11;15.90;70.80
40556;DHT22;26250;45.422;11.100;2023-04-15T17:59:37;15.90;71.00
40556;DHT22;26250;45.422;11.100;2023-04-15T18:02:09;15.80;71.10
40556;DHT22;26250;45.422;11.100;2023-04-15T18:04:37;15.80;71.10
40556;DHT22;26250;45.422;11.100;2023-04-15T18:07:05;15.70;71.00
40556;DHT22;26250;45.422;11.100;2023-04-15T18:09:32;15.70;70.20
40556;DHT22;26250;45.422;11.100;2023-04-15T18:12:00;15.60;71.10
40556;DHT22;26250;45.422;11.100;2023-04-15T18:14:27;15.50;71.40
40556;DHT22;26250;45.422;11.100;2023-04-15T18:17:03;15.50;71.40
40556;DHT22;26250;45.422;11.100;2023-04-15T18:19:30;15.50;70.40
40556;DHT22;26250;45.422;11.100;2023-04-15T18:21:57;15.40;70.60
40556;DHT22;26250;45.422;11.100;2023-04-15T18:24:26;15.40;70.70
40556;DHT22;26250;45.422;11.100;2023-04-15T18:26:53;15.40;71.70
40556;DHT22;26250;45.422;11.100;2023-04-15T18:29:20;15.40;71.10
40556;DHT22;26250;45.422;11.100;2023-04-15T18:31:47;15.30;71.30
40556;DHT22;26250;45.422;11.100;2023-04-15T18:34:14;15.20;71.40
40556;DHT22;26250;45.422;11.100;2023-04-15T18:36:41;15.30;71.70
40556;DHT22;26250;45.422;11.100;2023-04-15T18:39:07;15.20;72.20
40556;DHT22;26250;45.422;11.100;2023-04-15T18:41:35;15.20;72.30
40556;DHT22;26250;45.422;11.100;2023-04-15T18:44:01;15.10;72.50
40556;DHT22;26250;45.422;11.100;2023-04-15T18:46:30;15.20;72.60
40556;DHT22;26250;45.422;11.100;2023-04-15T18:48:57;15.10;72.60
40556;DHT22;26250;45.422;11.100;2023-04-15T18:51:24;15.10;72.50
40556;DHT22;26250;45.422;11.100;2023-04-15T18:53:51;15.10;72.60
40556;DHT22;26250;45.422;11.100;2023-04-15T18:56:18;15.00;72.40
40556;DHT22;26250;45.422;11.100;2023-04-15T18:58:45;15.00;72.10
40556;DHT22;26250;45.422;11.100;2023-04-15T19:01:32;15.00;71.70
40556;DHT22;26250;45.422;11.100;2023-04-15T19:03:59;14.90;72.40
40556;DHT22;26250;45.422;11.100;2023-04-15T19:06:26;15.00;72.30
40556;DHT22;26250;45.422;11.100;2023-04-15T19:08:53;14.90;71.90
40556;DHT22;26250;45.422;11.100;2023-04-15T19:11:20;14.90;72.10
40556;DHT22;26250;45.422;11.100;2023-04-15T19:13:47;14.90;72.40
40556;DHT22;26250;45.422;11.100;2023-04-15T19:16:14;14.80;72.10
40556;DHT22;26250;45.422;11.100;2023-04-15T19:18:41;14.80;71.90
40556;DHT22;26250;45.422;11.100;2023-04-15T19:21:10;14.70;72.50
40556;DHT22;26250;45.422;11.100;2023-04-15T19:23:38;14.70;72.80
40556;DHT22;26250;45.422;11.100;2023-04-15T19:26:05;14.80;72.00
40556;DHT22;26250;45.422;11.100;2023-04-15T19:28:33;14.70;72.30
40556;DHT22;26250;45.422;11.100;2023-04-15T19:31:00;14.70;71.70
40556;DHT22;26250;45.422;11.100;2023-04-15T19:33:27;14.70;71.50
40556;DHT22;26250;45.422;11.100;2023-04-15T19:36:01;14.60;71.60
40556;DHT22;26250;45.422;11.100;2023-04-15T19:38:29;14.60;71.50
40556;DHT22;26250;45.422;11.100;2023-04-15T19:40:57;14.60;71.50
40556;DHT22;26250;45.422;11.100;2023-04-15T19:43:26;14.50;71.60
40556;DHT22;26250;45.422;11.100;2023-04-15T19:45:53;14.50;71.60
40556;DHT22;26250;45.422;11.100;2023-04-15T19:48:23;14.50;71.70
40556;DHT22;26250;45.422;11.100;2023-04-15T19:50:50;14.50;71.60
40556;DHT22;26250;45.422;11.100;2023-04-15T19:53:17;14.50;71.90
40556;DHT22;26250;45.422;11.100;2023-04-15T19:55:44;14.50;71.60
40556;DHT22;26250;45.422;11.100;2023-04-15T19:58:11;14.40;72.30
40556;DHT22;26250;45.422;11.100;2023-04-15T20:00:38;14.40;71.90
40556;DHT22;26250;45.422;11.100;2023-04-15T20:03:05;14.40;71.60
40556;DHT22;26250;45.422;11.100;2023-04-15T20:05:32;14.50;71.90
40556;DHT22;26250;45.422;11.100;2023-04-15T20:08:00;14.40;72.30
40556;DHT22;26250;45.422;11.100;2023-04-15T20:10:27;14.40;72.10
40556;DHT22;26250;45.422;11.100;2023-04-15T20:12:54;14.40;72.10
40556;DHT22;26250;45.422;11.100;2023-04-15T20:15:21;14.40;71.90
40556;DHT22;26250;45.422;11.100;2023-04-15T20:17:49;14.40;71.70
40556;DHT22;26250;45.422;11.100;2023-04-15T20:20:16;14.40;71.60
40556;DHT22;26250;45.422;11.100;2023-04-15T20:22:46;14.30;71.10
